createdAt,value
2022-09-24T00:00:10.111Z,70.33
2022-09-24T00:02:36.821Z,69.05
2022-09-24T00:05:03.664Z,69.22
2022-09-24T00:07:30.357Z,68.92
2022-09-24T00:09:56.952Z,68.95
2022-09-24T00:12:23.900Z,68.83
2022-09-24T00:14:50.485Z,69.68
2022-09-24T00:17:20.364Z,69.06
2022-09-24T00:19:47.074Z,69.09
2022-09-24T00:22:13.771Z,68.77
2022-09-24T00:24:40.488Z,68.69
2022-09-24T00:27:07.870Z,69.00
2022-09-24T00:29:35.155Z,69.90
2022-09-24T00:32:02.880Z,69.96
2022-09-24T00:34:29.701Z,69.52
2022-09-24T00:36:56.440Z,69.13
2022-09-24T00:39:23.094Z,69.11
2022-09-24T00:41:49.968Z,69.23
2022-09-24T00:44:41.554Z,69.03
2022-09-24T00:47:17.396Z,69.16
2022-09-24T00:49:45.357Z,70.05
2022-09-24T00:52:11.948Z,70.80
2022-09-24T00:54:38.732Z,70.95
2022-09-24T00:57:05.423Z,71.78
2022-09-24T00:59:32.122Z,70.76
2022-09-24T01:01:58.889Z,71.17
2022-09-24T01:04:27.383Z,70.92
2022-09-24T01:06:56.063Z,70.66
2022-09-24T01:09:26.083Z,71.31
2022-09-24T01:12:31.065Z,71.25
2022-09-24T01:15:05.707Z,70.50
2022-09-24T01:17:35.389Z,71.15
2022-09-24T01:20:20.785Z,71.68
2022-09-24T01:23:02.780Z,72.11
2022-09-24T01:25:54.220Z,71.73
2022-09-24T01:28:36.025Z,71.78
2022-09-24T01:31:15.007Z,71.84
2022-09-24T01:33:43.817Z,71.51
2022-09-24T01:36:11.378Z,70.51
2022-09-24T01:38:42.590Z,70.15
2022-09-24T01:41:11.952Z,69.04
2022-09-24T01:43:38.998Z,69.38
2022-09-24T01:46:06.677Z,69.34
2022-09-24T01:48:36.610Z,70.06
2022-09-24T01:51:23.580Z,71.03
2022-09-24T01:54:02.105Z,71.77
2022-09-24T01:56:34.527Z,71.59
2022-09-24T01:59:10.331Z,71.68
2022-09-24T02:01:45.264Z,71.62
2022-09-24T02:04:16.477Z,71.52
2022-09-24T02:06:51.426Z,71.58
2022-09-24T02:09:36.532Z,72.12
2022-09-24T02:12:35.072Z,72.97
2022-09-24T02:15:26.784Z,73.21
2022-09-24T02:17:59.749Z,72.90
2022-09-24T02:20:29.590Z,72.40
2022-09-24T02:22:57.444Z,72.54
2022-09-24T02:25:38.727Z,72.91
2022-09-24T02:28:05.675Z,72.78
2022-09-24T02:30:39.905Z,73.28
2022-09-24T02:33:10.955Z,73.47
2022-09-24T02:35:37.919Z,72.54
2022-09-24T02:38:06.343Z,73.03
2022-09-24T02:40:33.385Z,73.75
2022-09-24T02:43:00.239Z,73.55
2022-09-24T02:45:27.558Z,74.25
2022-09-24T02:47:54.127Z,74.35
2022-09-24T02:50:20.823Z,73.37
2022-09-24T02:52:47.599Z,73.50
2022-09-24T02:55:14.285Z,74.14
2022-09-24T02:57:40.889Z,74.32
2022-09-24T03:00:08.421Z,74.33
2022-09-24T03:02:35.146Z,73.65
2022-09-24T03:05:02.054Z,73.54
2022-09-24T03:07:28.741Z,73.00
2022-09-24T03:09:55.386Z,73.25
2022-09-24T03:12:21.979Z,73.05
2022-09-24T03:14:48.762Z,73.13
2022-09-24T03:17:15.390Z,73.30
2022-09-24T03:19:42.167Z,72.44
2022-09-24T03:22:08.807Z,72.58
2022-09-24T03:24:35.466Z,72.72
2022-09-24T03:27:02.082Z,73.02
2022-09-24T03:29:28.906Z,72.66
2022-09-24T03:31:55.526Z,73.01
2022-09-24T03:34:22.209Z,73.60
2022-09-24T03:36:49.012Z,73.45
2022-09-24T03:39:15.747Z,73.43
2022-09-24T03:41:42.363Z,73.50
2022-09-24T03:44:09.137Z,73.34
2022-09-24T03:46:35.819Z,73.46
2022-09-24T03:49:02.558Z,73.57
2022-09-24T03:51:29.853Z,74.25
2022-09-24T03:53:56.635Z,75.24
2022-09-24T03:56:23.408Z,75.03
2022-09-24T03:58:50.155Z,75.01
2022-09-24T04:01:17.355Z,74.25
2022-09-24T04:03:44.110Z,73.48
2022-09-24T04:06:10.818Z,73.68
2022-09-24T04:08:37.552Z,73.48
2022-09-24T04:11:04.436Z,72.88
2022-09-24T04:13:31.355Z,73.66
2022-09-24T04:16:02.301Z,73.76
2022-09-24T04:18:29.110Z,73.78
2022-09-24T04:21:00.248Z,75.22
2022-09-24T04:23:27.676Z,74.71
2022-09-24T04:25:54.350Z,75.19
2022-09-24T04:28:21.149Z,75.34
2022-09-24T04:30:48.059Z,74.30
2022-09-24T04:33:14.934Z,74.11
2022-09-24T04:35:41.606Z,73.48
2022-09-24T04:38:08.302Z,73.60
2022-09-24T04:40:34.945Z,73.58
2022-09-24T04:43:02.867Z,72.82
2022-09-24T04:45:29.473Z,72.73
2022-09-24T04:47:56.255Z,72.32
2022-09-24T04:50:24.483Z,72.92
2022-09-24T04:52:53.469Z,71.90
2022-09-24T04:55:20.388Z,72.81
2022-09-24T04:57:47.994Z,73.23
2022-09-24T05:00:17.327Z,73.76
2022-09-24T05:02:44.732Z,74.42
2022-09-24T05:05:12.341Z,74.40
2022-09-24T05:07:39.719Z,73.94
2022-09-24T05:10:07.081Z,74.46
2022-09-24T05:12:33.847Z,74.01
2022-09-24T05:15:00.432Z,73.95
2022-09-24T05:17:27.181Z,73.68
2022-09-24T05:19:53.932Z,73.93
2022-09-24T05:22:20.661Z,73.90
2022-09-24T05:24:47.271Z,73.49
2022-09-24T05:27:15.078Z,73.81
2022-09-24T05:29:43.396Z,74.60
2022-09-24T05:32:12.377Z,74.68
2022-09-24T05:34:39.130Z,74.94
2022-09-24T05:37:05.800Z,74.92
2022-09-24T05:39:34.270Z,74.96
2022-09-24T05:42:01.615Z,74.97
2022-09-24T05:44:28.213Z,74.35
2022-09-24T05:46:55.035Z,73.71
2022-09-24T05:49:21.704Z,74.85
2022-09-24T05:51:51.849Z,75.19
2022-09-24T05:54:18.997Z,75.15
2022-09-24T05:56:46.122Z,74.67
2022-09-24T05:59:12.741Z,75.47
2022-09-24T06:01:39.637Z,75.36
2022-09-24T06:04:09.180Z,75.37
2022-09-24T06:06:36.216Z,75.16
2022-09-24T06:09:03.752Z,75.53
2022-09-24T06:11:37.668Z,74.80
2022-09-24T06:14:07.133Z,75.01
2022-09-24T06:16:33.913Z,74.83
2022-09-24T06:19:00.897Z,74.76
2022-09-24T06:21:27.922Z,74.01
2022-09-24T06:23:54.661Z,74.13
2022-09-24T06:26:21.834Z,73.63
2022-09-24T06:28:48.614Z,73.83
2022-09-24T06:31:15.277Z,73.49
2022-09-24T06:33:42.111Z,73.96
2022-09-24T06:36:09.143Z,74.32
2022-09-24T06:38:35.977Z,75.04
2022-09-24T06:41:04.936Z,75.72
2022-09-24T06:43:32.195Z,76.52
2022-09-24T06:46:00.044Z,76.05
2022-09-24T06:48:27.928Z,76.33
2022-09-24T06:50:54.536Z,76.32
2022-09-24T06:53:21.317Z,76.54
2022-09-24T06:55:49.858Z,76.07
2022-09-24T06:58:19.217Z,76.03
2022-09-24T07:00:51.870Z,75.90
2022-09-24T07:03:19.256Z,75.84
2022-09-24T07:05:45.994Z,75.51
2022-09-24T07:08:12.756Z,75.45
2022-09-24T07:10:46.094Z,75.99
2022-09-24T07:13:13.878Z,76.73
2022-09-24T07:15:41.867Z,77.37
2022-09-24T07:18:09.378Z,76.45
2022-09-24T07:20:36.132Z,77.16
2022-09-24T07:23:07.546Z,76.33
2022-09-24T07:25:34.777Z,74.98
2022-09-24T07:28:03.526Z,74.48
2022-09-24T07:30:31.874Z,73.86
2022-09-24T07:32:58.539Z,73.65
2022-09-24T07:35:27.259Z,73.53
2022-09-24T07:38:01.145Z,72.60
2022-09-24T07:40:29.381Z,71.98
2022-09-24T07:42:56.575Z,71.94
2022-09-24T07:45:25.080Z,71.01
2022-09-24T07:48:03.853Z,71.29
2022-09-24T07:50:37.605Z,72.17
2022-09-24T07:53:05.158Z,71.73
2022-09-24T07:55:31.889Z,69.75
2022-09-24T07:57:58.681Z,69.16
2022-09-24T08:00:25.774Z,67.68
2022-09-24T08:02:52.474Z,67.77
2022-09-24T08:05:19.880Z,68.27
2022-09-24T08:07:57.454Z,68.94
2022-09-24T08:10:26.253Z,68.61
2022-09-24T08:12:53.169Z,66.31
2022-09-24T08:15:21.028Z,67.47
2022-09-24T08:17:47.998Z,66.98
2022-09-24T08:20:16.217Z,67.79
2022-09-24T08:22:43.051Z,69.85
2022-09-24T08:25:10.016Z,69.55
2022-09-24T08:27:36.985Z,66.41
2022-09-24T08:30:05.147Z,69.21
2022-09-24T08:32:31.726Z,68.43
2022-09-24T08:34:58.377Z,65.05
2022-09-24T08:37:25.048Z,66.29
2022-09-24T08:39:51.637Z,63.18
2022-09-24T08:42:24.296Z,64.75
2022-09-24T08:44:52.497Z,65.87
2022-09-24T08:47:45.541Z,62.65
2022-09-24T08:50:18.680Z,67.06
2022-09-24T08:52:57.822Z,65.99
2022-09-24T08:55:41.062Z,63.06
2022-09-24T08:58:10.629Z,60.95
2022-09-24T09:01:02.199Z,62.84
2022-09-24T09:04:01.354Z,61.48
2022-09-24T09:06:47.318Z,60.16
2022-09-24T09:09:21.903Z,60.71
2022-09-24T09:12:00.859Z,61.40
2022-09-24T09:14:45.572Z,59.67
2022-09-24T09:17:18.305Z,61.14
2022-09-24T09:19:53.859Z,59.48
2022-09-24T09:22:24.909Z,58.18
2022-09-24T09:24:53.633Z,58.55
2022-09-24T09:27:20.943Z,58.05
2022-09-24T09:29:51.759Z,56.32
2022-09-24T09:32:42.890Z,56.00
2022-09-24T09:35:19.886Z,56.17
2022-09-24T09:37:52.833Z,56.16
2022-09-24T09:40:43.651Z,55.17
2022-09-24T09:43:13.137Z,54.68
2022-09-24T09:46:04.657Z,53.92
2022-09-24T09:48:44.012Z,54.21
2022-09-24T09:51:21.972Z,54.61
2022-09-24T09:53:57.713Z,54.34
2022-09-24T09:56:42.877Z,50.52
2022-09-24T09:59:12.550Z,52.08
2022-09-24T10:01:41.953Z,52.80
2022-09-24T10:04:27.245Z,53.34
2022-09-24T10:07:10.280Z,54.13
2022-09-24T10:09:38.912Z,51.49
2022-09-24T10:12:16.803Z,54.48
2022-09-24T10:14:44.427Z,51.96
2022-09-24T10:17:18.351Z,52.78
2022-09-24T10:19:46.064Z,52.76
2022-09-24T10:22:31.034Z,51.50
2022-09-24T10:24:59.795Z,50.52
2022-09-24T10:27:34.325Z,49.64
2022-09-24T10:30:04.841Z,48.94
2022-09-24T10:32:31.453Z,50.80
2022-09-24T10:34:59.082Z,47.65
2022-09-24T10:37:26.917Z,49.15
2022-09-24T10:40:01.909Z,48.93
2022-09-24T10:42:30.436Z,49.68
2022-09-24T10:45:00.697Z,49.02
2022-09-24T10:47:46.129Z,48.55
2022-09-24T10:50:23.643Z,47.58
2022-09-24T10:52:57.768Z,46.07
2022-09-24T10:55:44.955Z,46.40
2022-09-24T10:59:02.203Z,46.10
2022-09-24T11:02:16.419Z,48.00
2022-09-24T11:04:50.235Z,48.32
2022-09-24T11:07:39.399Z,47.30
2022-09-24T11:10:10.291Z,47.52
2022-09-24T11:12:56.551Z,46.44
2022-09-24T11:15:32.698Z,43.41
2022-09-24T11:18:36.994Z,43.97
2022-09-24T11:21:32.986Z,43.19
2022-09-24T11:24:35.181Z,45.05
2022-09-24T11:27:07.675Z,43.41
2022-09-24T11:29:50.264Z,43.37
2022-09-24T11:32:34.001Z,40.55
2022-09-24T11:35:06.960Z,41.58
2022-09-24T11:37:58.777Z,40.06
2022-09-24T11:40:25.694Z,40.59
2022-09-24T11:43:49.455Z,40.22
2022-09-24T11:46:45.342Z,41.28
2022-09-24T11:49:48.440Z,41.79
2022-09-24T11:52:24.371Z,42.69
2022-09-24T11:55:23.064Z,42.74
2022-09-24T11:57:49.944Z,42.50
2022-09-24T12:00:19.668Z,44.34
2022-09-24T12:03:08.049Z,42.88
2022-09-24T12:05:42.342Z,41.81
2022-09-24T12:08:27.587Z,42.33
2022-09-24T12:11:02.097Z,42.93
2022-09-24T12:13:45.226Z,41.07
2022-09-24T12:16:16.369Z,41.08
2022-09-24T12:18:54.472Z,42.26
2022-09-24T12:21:41.542Z,39.53
2022-09-24T12:24:19.352Z,40.17
2022-09-24T12:26:47.921Z,42.39
2022-09-24T12:29:40.896Z,41.85
2022-09-24T12:32:23.756Z,42.52
2022-09-24T12:35:02.767Z,41.81
2022-09-24T12:37:36.848Z,41.35
2022-09-24T12:40:12.675Z,40.78
2022-09-24T12:42:45.797Z,42.26
2022-09-24T12:45:21.554Z,42.33
2022-09-24T12:47:52.392Z,41.09
2022-09-24T12:50:25.934Z,42.64
2022-09-24T12:52:53.397Z,43.84
2022-09-24T12:55:24.837Z,43.00
2022-09-24T12:58:04.998Z,41.25
2022-09-24T13:00:45.747Z,41.09
2022-09-24T13:03:34.443Z,43.60
2022-09-24T13:06:02.054Z,43.87
2022-09-24T13:08:40.078Z,44.87
2022-09-24T13:11:25.172Z,42.86
2022-09-24T13:14:01.084Z,43.69
2022-09-24T13:16:28.317Z,43.13
2022-09-24T13:18:58.895Z,43.03
2022-09-24T13:21:28.363Z,44.96
2022-09-24T13:23:55.757Z,44.61
2022-09-24T13:26:29.323Z,44.90
2022-09-24T13:29:21.799Z,42.47
2022-09-24T13:31:53.916Z,40.96
2022-09-24T13:34:26.365Z,41.50
2022-09-24T13:37:11.040Z,42.36
2022-09-24T13:39:48.649Z,40.27
2022-09-24T13:42:21.349Z,41.36
2022-09-24T13:44:53.659Z,43.98
2022-09-24T13:47:33.813Z,44.60
2022-09-24T13:50:12.940Z,42.57
2022-09-24T13:52:44.668Z,44.19
2022-09-24T13:55:24.244Z,44.32
2022-09-24T13:57:51.290Z,44.09
2022-09-24T14:00:21.534Z,42.64
2022-09-24T14:03:20.771Z,42.88
2022-09-24T14:05:48.166Z,43.43
2022-09-24T14:08:18.396Z,43.10
2022-09-24T14:10:45.550Z,42.49
2022-09-24T14:13:26.193Z,42.27
2022-09-24T14:16:07.013Z,42.06
2022-09-24T14:18:33.872Z,41.78
2022-09-24T14:21:19.793Z,42.48
2022-09-24T14:23:48.111Z,45.08
2022-09-24T14:26:25.866Z,44.17
2022-09-24T14:28:53.721Z,42.45
2022-09-24T14:31:20.551Z,41.94
2022-09-24T14:33:47.545Z,40.72
2022-09-24T14:36:15.023Z,39.91
2022-09-24T14:38:53.550Z,39.71
2022-09-24T14:41:28.684Z,40.65
2022-09-24T14:44:01.388Z,40.38
2022-09-24T14:46:35.350Z,40.52
2022-09-24T14:49:26.790Z,40.38
2022-09-24T14:52:02.280Z,42.61
2022-09-24T14:54:45.397Z,40.70
2022-09-24T14:57:24.966Z,42.33
2022-09-24T14:59:52.634Z,42.74
2022-09-24T15:02:28.361Z,39.14
2022-09-24T15:05:05.507Z,39.48
2022-09-24T15:07:34.031Z,39.80
2022-09-24T15:10:03.198Z,39.70
2022-09-24T15:12:36.588Z,40.62
2022-09-24T15:15:15.849Z,39.88
2022-09-24T15:17:43.686Z,40.17
2022-09-24T15:20:12.108Z,40.47
2022-09-24T15:22:39.100Z,40.12
2022-09-24T15:25:07.445Z,41.06
2022-09-24T15:27:38.136Z,41.67
2022-09-24T15:30:07.331Z,42.86
2022-09-24T15:32:34.950Z,41.78
2022-09-24T15:35:02.497Z,42.00
2022-09-24T15:37:29.619Z,41.13
2022-09-24T15:39:59.266Z,41.49
2022-09-24T15:42:26.963Z,40.71
2022-09-24T15:44:54.091Z,41.43
2022-09-24T15:47:21.016Z,41.96
2022-09-24T15:49:47.948Z,42.91
2022-09-24T15:52:28.603Z,43.27
2022-09-24T15:54:57.825Z,43.92
2022-09-24T15:57:25.261Z,44.36
2022-09-24T15:59:52.765Z,43.97
2022-09-24T16:02:32.005Z,44.42
2022-09-24T16:05:03.618Z,44.22
2022-09-24T16:07:30.880Z,44.12
2022-09-24T16:09:57.488Z,44.38
2022-09-24T16:12:24.279Z,45.04
2022-09-24T16:14:50.975Z,44.81
2022-09-24T16:17:17.600Z,44.92
2022-09-24T16:19:44.526Z,44.63
2022-09-24T16:22:11.296Z,45.01
2022-09-24T16:24:37.973Z,45.82
2022-09-24T16:27:04.678Z,46.01
2022-09-24T16:29:31.262Z,47.35
2022-09-24T16:31:57.956Z,47.82
2022-09-24T16:34:24.633Z,48.01
2022-09-24T16:36:51.374Z,47.94
2022-09-24T16:39:17.996Z,48.49
2022-09-24T16:41:47.963Z,49.45
2022-09-24T16:44:14.724Z,49.19
2022-09-24T16:46:42.230Z,49.20
2022-09-24T16:49:09.053Z,48.44
2022-09-24T16:51:36.285Z,47.70
2022-09-24T16:54:02.866Z,47.96
2022-09-24T16:56:29.522Z,48.78
2022-09-24T16:58:56.452Z,49.68
2022-09-24T17:01:23.271Z,50.77
2022-09-24T17:03:58.274Z,50.91
2022-09-24T17:06:28.360Z,51.65
2022-09-24T17:08:55.717Z,51.68
2022-09-24T17:11:22.683Z,51.87
2022-09-24T17:13:49.321Z,52.08
2022-09-24T17:16:16.973Z,52.44
2022-09-24T17:18:43.655Z,52.40
2022-09-24T17:21:12.793Z,52.79
2022-09-24T17:23:39.692Z,53.26
2022-09-24T17:26:16.588Z,53.17
2022-09-24T17:28:45.728Z,52.87
2022-09-24T17:31:15.862Z,53.18
2022-09-24T17:33:44.009Z,53.36
2022-09-24T17:36:12.646Z,53.55
2022-09-24T17:38:39.483Z,54.07
2022-09-24T17:41:08.671Z,54.95
2022-09-24T17:43:36.679Z,55.61
2022-09-24T17:46:11.414Z,55.21
2022-09-24T17:48:43.049Z,54.58
2022-09-24T17:51:37.539Z,53.96
2022-09-24T17:54:07.366Z,54.55
2022-09-24T17:56:35.403Z,54.75
2022-09-24T17:59:02.363Z,54.71
2022-09-24T18:01:31.375Z,54.97
2022-09-24T18:03:59.025Z,55.00
2022-09-24T18:06:32.537Z,55.22
2022-09-24T18:09:00.902Z,55.60
2022-09-24T18:11:30.711Z,55.69
2022-09-24T18:13:59.488Z,55.93
2022-09-24T18:16:31.357Z,55.78
2022-09-24T18:18:59.932Z,56.22
2022-09-24T18:21:27.311Z,56.82
2022-09-24T18:23:55.704Z,56.31
2022-09-24T18:26:25.374Z,56.49
2022-09-24T18:28:57.725Z,56.90
2022-09-24T18:31:27.183Z,57.10
2022-09-24T18:33:55.280Z,58.61
2022-09-24T18:36:23.328Z,57.45
2022-09-24T18:38:50.123Z,56.83
2022-09-24T18:41:28.214Z,56.46
2022-09-24T18:43:56.371Z,56.59
2022-09-24T18:46:23.575Z,56.58
2022-09-24T18:48:53.033Z,56.43
2022-09-24T18:51:25.610Z,57.00
2022-09-24T18:53:54.215Z,57.00
2022-09-24T18:56:22.150Z,56.86
2022-09-24T18:58:48.846Z,56.87
2022-09-24T19:01:15.873Z,57.19
2022-09-24T19:03:42.889Z,58.15
2022-09-24T19:06:10.341Z,58.38
2022-09-24T19:08:37.304Z,58.06
2022-09-24T19:11:09.833Z,58.15
2022-09-24T19:13:38.366Z,57.75
2022-09-24T19:16:25.411Z,57.97
2022-09-24T19:18:53.634Z,58.13
2022-09-24T19:21:21.655Z,58.45
2022-09-24T19:23:50.050Z,58.62
2022-09-24T19:26:20.004Z,58.43
2022-09-24T19:28:48.137Z,59.23
2022-09-24T19:31:23.792Z,59.72
2022-09-24T19:33:52.318Z,60.62
2022-09-24T19:36:20.095Z,60.57
2022-09-24T19:38:47.172Z,60.48
2022-09-24T19:41:16.958Z,60.19
2022-09-24T19:43:44.223Z,60.67
2022-09-24T19:46:16.911Z,60.99
2022-09-24T19:48:49.067Z,61.45
2022-09-24T19:51:26.453Z,61.85
2022-09-24T19:53:58.173Z,61.63
2022-09-24T19:56:25.182Z,62.33
2022-09-24T19:58:57.710Z,63.41
2022-09-24T20:01:32.598Z,63.02
2022-09-24T20:04:08.103Z,62.79
2022-09-24T20:06:43.799Z,62.59
2022-09-24T20:09:17.914Z,62.50
2022-09-24T20:11:47.564Z,63.10
2022-09-24T20:14:19.163Z,64.00
2022-09-24T20:16:47.231Z,64.23
2022-09-24T20:20:33.857Z,64.04
2022-09-24T20:23:58.874Z,63.96
2022-09-24T20:29:20.688Z,64.48
2022-09-24T20:31:54.883Z,64.34
2022-09-24T20:34:30.913Z,64.43
2022-09-24T20:36:59.061Z,64.50
2022-09-24T20:39:26.691Z,65.11
2022-09-24T20:42:00.652Z,64.74
2022-09-24T20:44:27.978Z,64.87
2022-09-24T20:46:55.126Z,65.53
2022-09-24T20:49:23.060Z,65.35
2022-09-24T20:51:57.386Z,65.45
2022-09-24T20:54:25.919Z,65.29
2022-09-24T20:56:52.705Z,65.59
2022-09-24T20:59:20.001Z,65.73
2022-09-24T21:01:49.461Z,65.96
2022-09-24T21:04:19.741Z,65.92
2022-09-24T21:06:48.166Z,66.21
2022-09-24T21:09:55.386Z,65.57
2022-09-24T21:12:22.445Z,66.08
2022-09-24T21:14:48.987Z,65.90
2022-09-24T21:17:15.860Z,66.17
2022-09-24T21:19:43.234Z,66.56
2022-09-24T21:22:09.973Z,66.27
2022-09-24T21:24:37.564Z,66.55
2022-09-24T21:27:06.263Z,66.29
2022-09-24T21:29:33.928Z,66.28
2022-09-24T21:32:01.300Z,66.12
2022-09-24T21:34:28.073Z,66.17
2022-09-24T21:36:54.929Z,65.60
2022-09-24T21:39:25.279Z,65.17
2022-09-24T21:41:54.181Z,65.48
2022-09-24T21:44:23.077Z,65.48
2022-09-24T21:46:50.145Z,65.72
2022-09-24T21:49:18.266Z,66.08
2022-09-24T21:51:46.408Z,66.35
2022-09-24T21:54:15.930Z,66.88
2022-09-24T21:56:43.295Z,66.76
2022-09-24T21:59:10.294Z,66.89
2022-09-24T22:01:36.997Z,66.97
2022-09-24T22:04:03.690Z,66.75
2022-09-24T22:06:31.644Z,66.92
2022-09-24T22:09:01.569Z,67.06
2022-09-24T22:11:29.049Z,66.79
2022-09-24T22:13:56.203Z,66.92
2022-09-24T22:16:23.069Z,66.47
2022-09-24T22:18:50.239Z,66.55
2022-09-24T22:21:19.370Z,66.56
2022-09-24T22:23:49.287Z,66.57
2022-09-24T22:31:59.474Z,66.78
2022-09-24T22:34:27.247Z,67.29
2022-09-24T22:36:53.947Z,66.92
2022-09-24T22:39:21.127Z,66.62
2022-09-24T22:41:48.062Z,66.42
2022-09-24T22:44:15.570Z,66.43
2022-09-24T22:46:42.334Z,67.27
2022-09-24T22:49:10.166Z,68.30
2022-09-24T22:51:36.717Z,68.01
2022-09-24T22:54:03.620Z,67.93
2022-09-24T22:56:30.906Z,67.44
2022-09-24T22:59:00.061Z,66.68
2022-09-24T23:01:30.009Z,66.79
2022-09-24T23:03:58.067Z,67.15
2022-09-24T23:06:25.495Z,67.07
2022-09-24T23:08:54.831Z,67.36
2022-09-24T23:11:27.462Z,67.85
2022-09-24T23:13:58.779Z,67.68
2022-09-24T23:16:29.121Z,67.24
2022-09-24T23:18:58.600Z,67.30
2022-09-24T23:21:28.037Z,67.33
2022-09-24T23:23:56.763Z,67.37
2022-09-24T23:26:24.864Z,67.22
2022-09-24T23:28:53.149Z,67.72
2022-09-24T23:31:28.801Z,68.60
2022-09-24T23:33:57.698Z,68.87
2022-09-24T23:36:25.984Z,69.21
2022-09-24T23:38:52.694Z,69.22
2022-09-24T23:41:19.992Z,69.41
2022-09-24T23:43:46.832Z,68.99
2022-09-24T23:46:13.862Z,68.63
2022-09-24T23:48:40.796Z,68.56
2022-09-24T23:51:08.546Z,68.47
2022-09-24T23:53:36.057Z,68.15
2022-09-24T23:56:04.069Z,68.96
2022-09-24T23:58:31.381Z,68.54
